Arvonia, Virginia
Current Conditions -  °F | °C
As of 10:55 AM on Friday 21 Nov 2014 (Local Time) from KFVX Reporting Station
Clear Clear  
Wind Chill: 39°   Ceiling: Unl
Heat Index: 43°   Visibility: 10mi
Dew Point:   Wind: 6mph
Humidity: 25%   Direction: 350°N
Pressure: 30.44"   Gusts: NA
Location:  37.68°N, 78.34°W
Report Text: KFVX 211555Z AUTO 35005KT 10SM CLR 06/M13 A3044 RMK AO2 T00591127
Loading
Personal Weather Stations






























Interactive Weather Map New forecast layout! Learn more

10-Day Weather Forecast

Advertisements
Track Severe Weather on mobile